sensor_id;sensor_type;location;lat;lon;timestamp;P1;durP1;ratioP1;P2;durP2;ratioP2
52974;SDS011;38839;45.186;5.720;2023-12-04T00:02:22;13.27;;;8.52;;
52974;SDS011;38839;45.186;5.720;2023-12-04T00:04:47;11.02;;;7.60;;
52974;SDS011;38839;45.186;5.720;2023-12-04T00:07:13;12.95;;;7.60;;
52974;SDS011;38839;45.186;5.720;2023-12-04T00:09:38;12.00;;;8.13;;
52974;SDS011;38839;45.186;5.720;2023-12-04T00:12:04;11.80;;;8.13;;
52974;SDS011;38839;45.186;5.720;2023-12-04T00:14:29;14.60;;;8.25;;
52974;SDS011;38839;45.186;5.720;2023-12-04T00:16:55;11.43;;;7.90;;
52974;SDS011;38839;45.186;5.720;2023-12-04T00:19:20;13.93;;;9.27;;
52974;SDS011;38839;45.186;5.720;2023-12-04T00:21:46;12.48;;;8.23;;
52974;SDS011;38839;45.186;5.720;2023-12-04T00:24:11;12.07;;;7.90;;
52974;SDS011;38839;45.186;5.720;2023-12-04T00:26:36;14.70;;;9.27;;
52974;SDS011;38839;45.186;5.720;2023-12-04T00:29:02;14.45;;;9.07;;
52974;SDS011;38839;45.186;5.720;2023-12-04T00:31:27;12.95;;;8.30;;
52974;SDS011;38839;45.186;5.720;2023-12-04T00:33:53;13.07;;;8.55;;
52974;SDS011;38839;45.186;5.720;2023-12-04T00:36:18;13.20;;;7.80;;
52974;SDS011;38839;45.186;5.720;2023-12-04T00:38:44;11.27;;;7.47;;
52974;SDS011;38839;45.186;5.720;2023-12-04T00:41:10;10.75;;;7.15;;
52974;SDS011;38839;45.186;5.720;2023-12-04T00:43:36;11.23;;;7.53;;
52974;SDS011;38839;45.186;5.720;2023-12-04T00:46:01;10.98;;;6.75;;
52974;SDS011;38839;45.186;5.720;2023-12-04T00:48:27;12.57;;;6.35;;
52974;SDS011;38839;45.186;5.720;2023-12-04T00:50:52;9.65;;;6.55;;
52974;SDS011;38839;45.186;5.720;2023-12-04T00:53:18;8.85;;;6.18;;
52974;SDS011;38839;45.186;5.720;2023-12-04T00:55:43;10.18;;;5.82;;
52974;SDS011;38839;45.186;5.720;2023-12-04T00:58:08;7.47;;;5.03;;
52974;SDS011;38839;45.186;5.720;2023-12-04T01:00:34;8.25;;;5.65;;
52974;SDS011;38839;45.186;5.720;2023-12-04T01:02:59;8.95;;;6.10;;
52974;SDS011;38839;45.186;5.720;2023-12-04T01:05:24;8.75;;;5.45;;
52974;SDS011;38839;45.186;5.720;2023-12-04T01:07:50;9.60;;;6.57;;
52974;SDS011;38839;45.186;5.720;2023-12-04T01:10:16;11.32;;;6.68;;
52974;SDS011;38839;45.186;5.720;2023-12-04T01:12:41;11.10;;;7.68;;
52974;SDS011;38839;45.186;5.720;2023-12-04T01:15:07;9.45;;;6.57;;
52974;SDS011;38839;45.186;5.720;2023-12-04T01:17:32;11.15;;;6.57;;
52974;SDS011;38839;45.186;5.720;2023-12-04T01:19:58;9.93;;;6.53;;
52974;SDS011;38839;45.186;5.720;2023-12-04T01:22:23;10.30;;;6.75;;
52974;SDS011;38839;45.186;5.720;2023-12-04T01:24:48;10.20;;;7.20;;
52974;SDS011;38839;45.186;5.720;2023-12-04T01:27:14;9.20;;;6.20;;
52974;SDS011;38839;45.186;5.720;2023-12-04T01:29:39;9.07;;;6.40;;
52974;SDS011;38839;45.186;5.720;2023-12-04T01:32:05;9.77;;;6.97;;
52974;SDS011;38839;45.186;5.720;2023-12-04T01:34:30;10.40;;;6.55;;
52974;SDS011;38839;45.186;5.720;2023-12-04T01:36:55;7.78;;;5.70;;
52974;SDS011;38839;45.186;5.720;2023-12-04T01:39:21;8.02;;;6.13;;
52974;SDS011;38839;45.186;5.720;2023-12-04T01:41:46;8.05;;;5.70;;
52974;SDS011;38839;45.186;5.720;2023-12-04T01:44:12;7.75;;;5.05;;
52974;SDS011;38839;45.186;5.720;2023-12-04T01:46:37;9.10;;;5.60;;
52974;SDS011;38839;45.186;5.720;2023-12-04T01:49:02;7.10;;;5.32;;
52974;SDS011;38839;45.186;5.720;2023-12-04T01:51:28;8.10;;;5.22;;
52974;SDS011;38839;45.186;5.720;2023-12-04T01:53:55;6.90;;;5.35;;
52974;SDS011;38839;45.186;5.720;2023-12-04T01:56:23;9.63;;;6.00;;
52974;SDS011;38839;45.186;5.720;2023-12-04T01:58:49;9.48;;;5.57;;
52974;SDS011;38839;45.186;5.720;2023-12-04T02:01:14;7.95;;;5.90;;
52974;SDS011;38839;45.186;5.720;2023-12-04T02:03:40;7.57;;;5.63;;
52974;SDS011;38839;45.186;5.720;2023-12-04T02:06:07;7.47;;;5.20;;
52974;SDS011;38839;45.186;5.720;2023-12-04T02:08:34;7.32;;;5.43;;
52974;SDS011;38839;45.186;5.720;2023-12-04T02:11:00;7.20;;;5.47;;
52974;SDS011;38839;45.186;5.720;2023-12-04T02:13:25;10.63;;;5.28;;
52974;SDS011;38839;45.186;5.720;2023-12-04T02:15:52;9.05;;;5.55;;
52974;SDS011;38839;45.186;5.720;2023-12-04T02:18:19;9.20;;;5.85;;
52974;SDS011;38839;45.186;5.720;2023-12-04T02:20:46;7.35;;;5.13;;
52974;SDS011;38839;45.186;5.720;2023-12-04T02:23:11;8.23;;;5.65;;
52974;SDS011;38839;45.186;5.720;2023-12-04T02:25:37;7.60;;;5.30;;
52974;SDS011;38839;45.186;5.720;2023-12-04T02:28:05;7.90;;;5.50;;
52974;SDS011;38839;45.186;5.720;2023-12-04T02:30:32;8.32;;;4.95;;
52974;SDS011;38839;45.186;5.720;2023-12-04T02:33:03;8.15;;;5.35;;
52974;SDS011;38839;45.186;5.720;2023-12-04T02:35:31;8.02;;;5.10;;
52974;SDS011;38839;45.186;5.720;2023-12-04T02:37:59;7.45;;;4.93;;
52974;SDS011;38839;45.186;5.720;2023-12-04T02:40:26;6.88;;;5.22;;
52974;SDS011;38839;45.186;5.720;2023-12-04T02:42:52;7.22;;;5.07;;
52974;SDS011;38839;45.186;5.720;2023-12-04T02:45:18;8.88;;;5.85;;
52974;SDS011;38839;45.186;5.720;2023-12-04T02:47:43;6.00;;;4.65;;
52974;SDS011;38839;45.186;5.720;2023-12-04T02:50:09;7.25;;;5.07;;
52974;SDS011;38839;45.186;5.720;2023-12-04T02:52:34;7.75;;;5.28;;
52974;SDS011;38839;45.186;5.720;2023-12-04T02:54:59;8.05;;;5.70;;
52974;SDS011;38839;45.186;5.720;2023-12-04T02:57:25;8.07;;;6.05;;
52974;SDS011;38839;45.186;5.720;2023-12-04T02:59:50;7.90;;;4.88;;
52974;SDS011;38839;45.186;5.720;2023-12-04T03:02:16;7.72;;;4.65;;
52974;SDS011;38839;45.186;5.720;2023-12-04T03:04:41;8.05;;;4.90;;
52974;SDS011;38839;45.186;5.720;2023-12-04T03:07:06;7.15;;;4.97;;
52974;SDS011;38839;45.186;5.720;2023-12-04T03:09:32;6.22;;;4.63;;
52974;SDS011;38839;45.186;5.720;2023-12-04T03:11:57;6.28;;;4.55;;
52974;SDS011;38839;45.186;5.720;2023-12-04T03:14:23;7.80;;;4.90;;
52974;SDS011;38839;45.186;5.720;2023-12-04T03:16:49;6.45;;;4.97;;
52974;SDS011;38839;45.186;5.720;2023-12-04T03:19:14;8.52;;;5.35;;
52974;SDS011;38839;45.186;5.720;2023-12-04T03:21:40;7.45;;;5.47;;
52974;SDS011;38839;45.186;5.720;2023-12-04T03:24:05;8.38;;;5.50;;
52974;SDS011;38839;45.186;5.720;2023-12-04T03:26:30;8.65;;;5.10;;
52974;SDS011;38839;45.186;5.720;2023-12-04T03:28:56;7.15;;;4.85;;
52974;SDS011;38839;45.186;5.720;2023-12-04T03:31:22;8.18;;;4.88;;
52974;SDS011;38839;45.186;5.720;2023-12-04T03:33:48;8.65;;;5.32;;
52974;SDS011;38839;45.186;5.720;2023-12-04T03:36:13;6.85;;;4.78;;
52974;SDS011;38839;45.186;5.720;2023-12-04T03:38:38;7.60;;;4.70;;
52974;SDS011;38839;45.186;5.720;2023-12-04T03:41:04;7.45;;;4.95;;
52974;SDS011;38839;45.186;5.720;2023-12-04T03:43:29;10.38;;;5.43;;
52974;SDS011;38839;45.186;5.720;2023-12-04T03:45:55;11.10;;;5.32;;
52974;SDS011;38839;45.186;5.720;2023-12-04T03:48:20;7.70;;;5.03;;
52974;SDS011;38839;45.186;5.720;2023-12-04T03:50:45;7.28;;;4.80;;
52974;SDS011;38839;45.186;5.720;2023-12-04T03:53:11;5.50;;;3.38;;
52974;SDS011;38839;45.186;5.720;2023-12-04T03:55:37;5.05;;;3.35;;
52974;SDS011;38839;45.186;5.720;2023-12-04T03:58:02;4.82;;;3.60;;
52974;SDS011;38839;45.186;5.720;2023-12-04T04:00:28;5.78;;;4.47;;
52974;SDS011;38839;45.186;5.720;2023-12-04T04:02:53;5.93;;;3.47;;
52974;SDS011;38839;45.186;5.720;2023-12-04T04:05:19;5.03;;;3.55;;
52974;SDS011;38839;45.186;5.720;2023-12-04T04:07:44;4.97;;;3.75;;
52974;SDS011;38839;45.186;5.720;2023-12-04T04:10:09;4.43;;;3.03;;
52974;SDS011;38839;45.186;5.720;2023-12-04T04:12:35;5.20;;;3.42;;
52974;SDS011;38839;45.186;5.720;2023-12-04T04:15:01;5.20;;;3.20;;
52974;SDS011;38839;45.186;5.720;2023-12-04T04:17:26;5.60;;;3.85;;
52974;SDS011;38839;45.186;5.720;2023-12-04T04:19:52;5.70;;;3.67;;
52974;SDS011;38839;45.186;5.720;2023-12-04T04:22:18;8.07;;;3.67;;
52974;SDS011;38839;45.186;5.720;2023-12-04T04:24:47;8.00;;;4.18;;
52974;SDS011;38839;45.186;5.720;2023-12-04T04:27:13;4.82;;;3.67;;
52974;SDS011;38839;45.186;5.720;2023-12-04T04:29:38;5.15;;;3.50;;
52974;SDS011;38839;45.186;5.720;2023-12-04T04:32:04;5.07;;;3.83;;
52974;SDS011;38839;45.186;5.720;2023-12-04T04:34:30;7.72;;;4.15;;
52974;SDS011;38839;45.186;5.720;2023-12-04T04:36:55;5.78;;;4.20;;
52974;SDS011;38839;45.186;5.720;2023-12-04T04:39:21;7.53;;;4.15;;
52974;SDS011;38839;45.186;5.720;2023-12-04T04:41:46;6.63;;;4.03;;
52974;SDS011;38839;45.186;5.720;2023-12-04T04:44:11;5.60;;;4.00;;
52974;SDS011;38839;45.186;5.720;2023-12-04T04:46:37;5.80;;;3.70;;
52974;SDS011;38839;45.186;5.720;2023-12-04T04:49:02;5.63;;;3.95;;
52974;SDS011;38839;45.186;5.720;2023-12-04T04:51:31;7.05;;;3.95;;
52974;SDS011;38839;45.186;5.720;2023-12-04T04:53:57;8.32;;;4.43;;
52974;SDS011;38839;45.186;5.720;2023-12-04T04:56:22;6.00;;;4.47;;
52974;SDS011;38839;45.186;5.720;2023-12-04T04:58:47;5.35;;;3.60;;
52974;SDS011;38839;45.186;5.720;2023-12-04T05:01:13;4.53;;;3.63;;
52974;SDS011;38839;45.186;5.720;2023-12-04T05:03:39;5.70;;;4.20;;
52974;SDS011;38839;45.186;5.720;2023-12-04T05:06:05;6.68;;;4.13;;
52974;SDS011;38839;45.186;5.720;2023-12-04T05:08:30;7.43;;;4.28;;
52974;SDS011;38839;45.186;5.720;2023-12-04T05:10:56;5.75;;;4.30;;
52974;SDS011;38839;45.186;5.720;2023-12-04T05:13:21;4.75;;;3.70;;
52974;SDS011;38839;45.186;5.720;2023-12-04T05:15:46;3.22;;;2.75;;
52974;SDS011;38839;45.186;5.720;2023-12-04T05:18:12;6.82;;;3.50;;
52974;SDS011;38839;45.186;5.720;2023-12-04T05:20:37;4.03;;;2.95;;
52974;SDS011;38839;45.186;5.720;2023-12-04T05:23:03;4.50;;;3.08;;
52974;SDS011;38839;45.186;5.720;2023-12-04T05:25:28;5.00;;;3.30;;
52974;SDS011;38839;45.186;5.720;2023-12-04T05:27:53;4.75;;;2.85;;
52974;SDS011;38839;45.186;5.720;2023-12-04T05:30:19;3.60;;;2.45;;
52974;SDS011;38839;45.186;5.720;2023-12-04T05:32:44;4.03;;;2.72;;
52974;SDS011;38839;45.186;5.720;2023-12-04T05:35:10;4.28;;;2.78;;
52974;SDS011;38839;45.186;5.720;2023-12-04T05:37:35;4.93;;;2.83;;
52974;SDS011;38839;45.186;5.720;2023-12-04T05:40:00;5.90;;;3.20;;
52974;SDS011;38839;45.186;5.720;2023-12-04T05:42:26;5.40;;;3.20;;
52974;SDS011;38839;45.186;5.720;2023-12-04T05:44:51;4.60;;;3.28;;
52974;SDS011;38839;45.186;5.720;2023-12-04T05:47:20;3.75;;;2.60;;
52974;SDS011;38839;45.186;5.720;2023-12-04T05:49:45;3.70;;;2.60;;
52974;SDS011;38839;45.186;5.720;2023-12-04T05:52:11;6.03;;;2.72;;
52974;SDS011;38839;45.186;5.720;2023-12-04T05:54:36;4.70;;;2.70;;
52974;SDS011;38839;45.186;5.720;2023-12-04T05:57:02;4.45;;;2.92;;
52974;SDS011;38839;45.186;5.720;2023-12-04T05:59:27;3.63;;;2.78;;
52974;SDS011;38839;45.186;5.720;2023-12-04T06:01:53;4.45;;;2.20;;
52974;SDS011;38839;45.186;5.720;2023-12-04T06:04:18;3.05;;;2.35;;
52974;SDS011;38839;45.186;5.720;2023-12-04T06:06:43;3.38;;;2.30;;
52974;SDS011;38839;45.186;5.720;2023-12-04T06:09:09;4.05;;;2.20;;
52974;SDS011;38839;45.186;5.720;2023-12-04T06:11:34;3.33;;;2.20;;
52974;SDS011;38839;45.186;5.720;2023-12-04T06:13:59;3.75;;;1.85;;
52974;SDS011;38839;45.186;5.720;2023-12-04T06:16:25;3.50;;;1.90;;
52974;SDS011;38839;45.186;5.720;2023-12-04T06:18:50;3.13;;;2.00;;
52974;SDS011;38839;45.186;5.720;2023-12-04T06:21:15;3.22;;;2.22;;
52974;SDS011;38839;45.186;5.720;2023-12-04T06:23:41;4.35;;;2.72;;
52974;SDS011;38839;45.186;5.720;2023-12-04T06:26:07;3.95;;;2.72;;
52974;SDS011;38839;45.186;5.720;2023-12-04T06:28:33;5.03;;;2.33;;
52974;SDS011;38839;45.186;5.720;2023-12-04T06:30:59;3.67;;;2.47;;
52974;SDS011;38839;45.186;5.720;2023-12-04T06:33:25;3.70;;;2.05;;
52974;SDS011;38839;45.186;5.720;2023-12-04T06:35:51;4.07;;;2.58;;
52974;SDS011;38839;45.186;5.720;2023-12-04T06:38:16;3.55;;;2.38;;
52974;SDS011;38839;45.186;5.720;2023-12-04T06:40:44;4.18;;;2.42;;
52974;SDS011;38839;45.186;5.720;2023-12-04T06:43:09;3.10;;;2.20;;
52974;SDS011;38839;45.186;5.720;2023-12-04T06:45:35;4.40;;;2.38;;
52974;SDS011;38839;45.186;5.720;2023-12-04T06:48:01;8.57;;;2.42;;
52974;SDS011;38839;45.186;5.720;2023-12-04T06:50:27;3.78;;;2.38;;
52974;SDS011;38839;45.186;5.720;2023-12-04T06:52:52;4.72;;;1.80;;
52974;SDS011;38839;45.186;5.720;2023-12-04T06:55:18;7.13;;;2.45;;
52974;SDS011;38839;45.186;5.720;2023-12-04T06:57:43;3.38;;;2.10;;
52974;SDS011;38839;45.186;5.720;2023-12-04T07:00:09;4.47;;;1.90;;
52974;SDS011;38839;45.186;5.720;2023-12-04T07:02:39;3.80;;;2.03;;
52974;SDS011;38839;45.186;5.720;2023-12-04T07:05:04;2.15;;;1.52;;
52974;SDS011;38839;45.186;5.720;2023-12-04T07:07:30;4.00;;;2.10;;
52974;SDS011;38839;45.186;5.720;2023-12-04T07:09:56;3.15;;;2.33;;
52974;SDS011;38839;45.186;5.720;2023-12-04T07:12:21;5.90;;;2.25;;
52974;SDS011;38839;45.186;5.720;2023-12-04T07:14:46;2.95;;;1.92;;
52974;SDS011;38839;45.186;5.720;2023-12-04T07:17:12;5.70;;;1.70;;
52974;SDS011;38839;45.186;5.720;2023-12-04T07:19:37;4.15;;;2.30;;
52974;SDS011;38839;45.186;5.720;2023-12-04T07:22:03;3.22;;;2.15;;
52974;SDS011;38839;45.186;5.720;2023-12-04T07:24:29;2.53;;;1.80;;
52974;SDS011;38839;45.186;5.720;2023-12-04T07:26:54;2.22;;;1.80;;
52974;SDS011;38839;45.186;5.720;2023-12-04T07:29:19;3.05;;;2.20;;
52974;SDS011;38839;45.186;5.720;2023-12-04T07:31:45;4.20;;;1.98;;
52974;SDS011;38839;45.186;5.720;2023-12-04T07:34:10;4.28;;;2.10;;
52974;SDS011;38839;45.186;5.720;2023-12-04T07:36:35;3.72;;;2.47;;
52974;SDS011;38839;45.186;5.720;2023-12-04T07:39:01;3.53;;;2.22;;
52974;SDS011;38839;45.186;5.720;2023-12-04T07:41:27;3.53;;;1.98;;
52974;SDS011;38839;45.186;5.720;2023-12-04T07:43:53;2.30;;;1.75;;
52974;SDS011;38839;45.186;5.720;2023-12-04T07:46:19;5.35;;;1.90;;
52974;SDS011;38839;45.186;5.720;2023-12-04T07:48:45;3.25;;;1.77;;
52974;SDS011;38839;45.186;5.720;2023-12-04T07:51:11;2.63;;;1.67;;
52974;SDS011;38839;45.186;5.720;2023-12-04T07:53:36;5.30;;;2.00;;
52974;SDS011;38839;45.186;5.720;2023-12-04T07:56:01;3.95;;;2.03;;
52974;SDS011;38839;45.186;5.720;2023-12-04T07:58:30;2.53;;;1.90;;
52974;SDS011;38839;45.186;5.720;2023-12-04T08:00:59;5.13;;;2.25;;
52974;SDS011;38839;45.186;5.720;2023-12-04T08:03:25;3.00;;;2.20;;
52974;SDS011;38839;45.186;5.720;2023-12-04T08:05:51;5.38;;;2.20;;
52974;SDS011;38839;45.186;5.720;2023-12-04T08:08:16;4.05;;;1.98;;
52974;SDS011;38839;45.186;5.720;2023-12-04T08:10:42;3.45;;;2.15;;
52974;SDS011;38839;45.186;5.720;2023-12-04T08:13:07;4.28;;;2.15;;
52974;SDS011;38839;45.186;5.720;2023-12-04T08:15:32;2.00;;;1.80;;
52974;SDS011;38839;45.186;5.720;2023-12-04T08:17:58;6.03;;;2.60;;
52974;SDS011;38839;45.186;5.720;2023-12-04T08:20:23;3.65;;;2.20;;
52974;SDS011;38839;45.186;5.720;2023-12-04T08:22:49;2.90;;;2.15;;
52974;SDS011;38839;45.186;5.720;2023-12-04T08:25:14;3.20;;;2.05;;
52974;SDS011;38839;45.186;5.720;2023-12-04T08:27:40;3.15;;;1.90;;
52974;SDS011;38839;45.186;5.720;2023-12-04T08:30:05;3.08;;;2.00;;
52974;SDS011;38839;45.186;5.720;2023-12-04T08:32:31;4.05;;;2.13;;
52974;SDS011;38839;45.186;5.720;2023-12-04T08:34:57;2.95;;;2.15;;
52974;SDS011;38839;45.186;5.720;2023-12-04T08:37:22;4.90;;;2.10;;
52974;SDS011;38839;45.186;5.720;2023-12-04T08:39:48;4.18;;;2.45;;
52974;SDS011;38839;45.186;5.720;2023-12-04T08:42:13;5.18;;;2.22;;
52974;SDS011;38839;45.186;5.720;2023-12-04T08:44:39;4.82;;;2.28;;
52974;SDS011;38839;45.186;5.720;2023-12-04T08:47:05;3.63;;;2.08;;
52974;SDS011;38839;45.186;5.720;2023-12-04T08:49:31;3.50;;;2.15;;
52974;SDS011;38839;45.186;5.720;2023-12-04T08:51:57;5.95;;;2.17;;
52974;SDS011;38839;45.186;5.720;2023-12-04T08:54:23;4.68;;;2.55;;
52974;SDS011;38839;45.186;5.720;2023-12-04T08:56:49;5.03;;;2.30;;
52974;SDS011;38839;45.186;5.720;2023-12-04T08:59:14;3.75;;;2.30;;
52974;SDS011;38839;45.186;5.720;2023-12-04T09:01:41;3.38;;;2.20;;
52974;SDS011;38839;45.186;5.720;2023-12-04T09:04:07;5.03;;;2.42;;
52974;SDS011;38839;45.186;5.720;2023-12-04T09:06:33;5.65;;;3.50;;
52974;SDS011;38839;45.186;5.720;2023-12-04T09:08:59;5.90;;;3.05;;
52974;SDS011;38839;45.186;5.720;2023-12-04T09:11:24;4.78;;;2.80;;
52974;SDS011;38839;45.186;5.720;2023-12-04T09:13:50;5.40;;;2.78;;
52974;SDS011;38839;45.186;5.720;2023-12-04T09:16:15;3.47;;;2.15;;
52974;SDS011;38839;45.186;5.720;2023-12-04T09:18:40;4.03;;;2.33;;
52974;SDS011;38839;45.186;5.720;2023-12-04T09:21:06;5.78;;;2.42;;
52974;SDS011;38839;45.186;5.720;2023-12-04T09:23:33;5.47;;;2.22;;
52974;SDS011;38839;45.186;5.720;2023-12-04T09:25:59;5.20;;;2.70;;
52974;SDS011;38839;45.186;5.720;2023-12-04T09:28:24;5.25;;;2.10;;
52974;SDS011;38839;45.186;5.720;2023-12-04T09:30:50;4.43;;;2.20;;
52974;SDS011;38839;45.186;5.720;2023-12-04T09:33:15;2.83;;;2.00;;
52974;SDS011;38839;45.186;5.720;2023-12-04T09:35:41;5.50;;;2.20;;
52974;SDS011;38839;45.186;5.720;2023-12-04T09:38:07;3.45;;;2.00;;
52974;SDS011;38839;45.186;5.720;2023-12-04T09:40:32;2.03;;;1.45;;
52974;SDS011;38839;45.186;5.720;2023-12-04T09:42:58;2.28;;;1.23;;
52974;SDS011;38839;45.186;5.720;2023-12-04T09:45:23;3.72;;;1.95;;
52974;SDS011;38839;45.186;5.720;2023-12-04T09:47:50;3.75;;;1.70;;
52974;SDS011;38839;45.186;5.720;2023-12-04T09:50:16;3.00;;;1.42;;
52974;SDS011;38839;45.186;5.720;2023-12-04T09:55:13;2.97;;;1.30;;
52974;SDS011;38839;45.186;5.720;2023-12-04T09:57:40;7.00;;;2.05;;
52974;SDS011;38839;45.186;5.720;2023-12-04T10:00:07;3.00;;;1.63;;
52974;SDS011;38839;45.186;5.720;2023-12-04T10:02:35;4.20;;;1.33;;
52974;SDS011;38839;45.186;5.720;2023-12-04T10:05:01;2.63;;;1.40;;
52974;SDS011;38839;45.186;5.720;2023-12-04T10:07:30;3.40;;;1.63;;
52974;SDS011;38839;45.186;5.720;2023-12-04T10:09:55;1.17;;;0.70;;
52974;SDS011;38839;45.186;5.720;2023-12-04T10:12:20;0.63;;;0.40;;
52974;SDS011;38839;45.186;5.720;2023-12-04T10:14:52;0.82;;;0.47;;
52974;SDS011;38839;45.186;5.720;2023-12-04T10:17:28;0.60;;;0.30;;
52974;SDS011;38839;45.186;5.720;2023-12-04T10:20:05;1.50;;;0.75;;
52974;SDS011;38839;45.186;5.720;2023-12-04T10:22:55;0.32;;;0.32;;
52974;SDS011;38839;45.186;5.720;2023-12-04T10:25:25;0.35;;;0.35;;
52974;SDS011;38839;45.186;5.720;2023-12-04T10:27:52;1.30;;;0.50;;
52974;SDS011;38839;45.186;5.720;2023-12-04T10:30:25;1.48;;;0.75;;
52974;SDS011;38839;45.186;5.720;2023-12-04T10:32:56;0.60;;;0.60;;
52974;SDS011;38839;45.186;5.720;2023-12-04T10:35:29;1.17;;;0.77;;
52974;SDS011;38839;45.186;5.720;2023-12-04T10:37:58;0.28;;;0.20;;
52974;SDS011;38839;45.186;5.720;2023-12-04T10:40:28;0.55;;;0.20;;
52974;SDS011;38839;45.186;5.720;2023-12-04T10:45:36;0.68;;;0.32;;
52974;SDS011;38839;45.186;5.720;2023-12-04T10:48:02;3.75;;;0.40;;
52974;SDS011;38839;45.186;5.720;2023-12-04T10:50:31;0.35;;;0.35;;
52974;SDS011;38839;45.186;5.720;2023-12-04T10:52:58;0.40;;;0.33;;
52974;SDS011;38839;45.186;5.720;2023-12-04T10:55:26;1.55;;;0.35;;
52974;SDS011;38839;45.186;5.720;2023-12-04T10:57:51;0.52;;;0.28;;
52974;SDS011;38839;45.186;5.720;2023-12-04T11:00:19;0.32;;;0.30;;
52974;SDS011;38839;45.186;5.720;2023-12-04T11:02:46;0.70;;;0.20;;
52974;SDS011;38839;45.186;5.720;2023-12-04T11:05:15;1.15;;;0.52;;
52974;SDS011;38839;45.186;5.720;2023-12-04T11:07:56;1.40;;;0.57;;
52974;SDS011;38839;45.186;5.720;2023-12-04T11:10:24;1.90;;;0.60;;
52974;SDS011;38839;45.186;5.720;2023-12-04T11:12:56;5.88;;;0.60;;
52974;SDS011;38839;45.186;5.720;2023-12-04T11:15:27;0.95;;;0.43;;
52974;SDS011;38839;45.186;5.720;2023-12-04T11:17:58;1.98;;;0.30;;
52974;SDS011;38839;45.186;5.720;2023-12-04T11:20:26;0.22;;;0.20;;
52974;SDS011;38839;45.186;5.720;2023-12-04T11:22:54;3.53;;;1.00;;
52974;SDS011;38839;45.186;5.720;2023-12-04T11:25:20;1.33;;;0.90;;
52974;SDS011;38839;45.186;5.720;2023-12-04T11:27:49;3.97;;;1.87;;
52974;SDS011;38839;45.186;5.720;2023-12-04T11:30:16;4.75;;;1.90;;
52974;SDS011;38839;45.186;5.720;2023-12-04T11:32:46;2.70;;;1.63;;
52974;SDS011;38839;45.186;5.720;2023-12-04T11:35:14;2.08;;;1.20;;
52974;SDS011;38839;45.186;5.720;2023-12-04T11:37:42;3.45;;;1.40;;
52974;SDS011;38839;45.186;5.720;2023-12-04T11:40:10;4.40;;;1.50;;
52974;SDS011;38839;45.186;5.720;2023-12-04T11:42:37;3.17;;;1.70;;
52974;SDS011;38839;45.186;5.720;2023-12-04T11:45:04;2.85;;;1.77;;
52974;SDS011;38839;45.186;5.720;2023-12-04T11:47:31;5.85;;;1.88;;
52974;SDS011;38839;45.186;5.720;2023-12-04T11:50:13;3.63;;;1.90;;
52974;SDS011;38839;45.186;5.720;2023-12-04T11:52:38;4.43;;;2.65;;
52974;SDS011;38839;45.186;5.720;2023-12-04T11:55:04;3.50;;;2.03;;
52974;SDS011;38839;45.186;5.720;2023-12-04T11:57:36;6.03;;;2.22;;
52974;SDS011;38839;45.186;5.720;2023-12-04T12:02:37;3.47;;;1.88;;
52974;SDS011;38839;45.186;5.720;2023-12-04T12:05:03;2.03;;;1.40;;
52974;SDS011;38839;45.186;5.720;2023-12-04T12:07:29;3.60;;;1.67;;
52974;SDS011;38839;45.186;5.720;2023-12-04T12:09:55;4.43;;;1.60;;
52974;SDS011;38839;45.186;5.720;2023-12-04T12:12:21;3.67;;;2.20;;
52974;SDS011;38839;45.186;5.720;2023-12-04T12:14:46;3.95;;;1.80;;
52974;SDS011;38839;45.186;5.720;2023-12-04T12:17:12;3.22;;;1.75;;
52974;SDS011;38839;45.186;5.720;2023-12-04T12:19:39;3.47;;;1.70;;
52974;SDS011;38839;45.186;5.720;2023-12-04T12:22:04;3.17;;;1.90;;
52974;SDS011;38839;45.186;5.720;2023-12-04T12:24:29;5.97;;;2.58;;
52974;SDS011;38839;45.186;5.720;2023-12-04T12:26:55;5.05;;;2.20;;
52974;SDS011;38839;45.186;5.720;2023-12-04T12:29:20;3.00;;;2.03;;
52974;SDS011;38839;45.186;5.720;2023-12-04T12:31:46;6.05;;;2.38;;
52974;SDS011;38839;45.186;5.720;2023-12-04T12:34:11;3.72;;;2.40;;
52974;SDS011;38839;45.186;5.720;2023-12-04T12:36:37;3.28;;;2.10;;
52974;SDS011;38839;45.186;5.720;2023-12-04T12:39:03;5.47;;;2.63;;
52974;SDS011;38839;45.186;5.720;2023-12-04T12:41:33;3.58;;;2.15;;
52974;SDS011;38839;45.186;5.720;2023-12-04T12:44:00;6.05;;;2.85;;
52974;SDS011;38839;45.186;5.720;2023-12-04T12:46:25;5.10;;;3.70;;
52974;SDS011;38839;45.186;5.720;2023-12-04T12:48:51;4.05;;;2.50;;
52974;SDS011;38839;45.186;5.720;2023-12-04T12:51:17;11.52;;;2.70;;
52974;SDS011;38839;45.186;5.720;2023-12-04T12:53:44;4.30;;;2.50;;
52974;SDS011;38839;45.186;5.720;2023-12-04T12:56:09;6.30;;;3.45;;
52974;SDS011;38839;45.186;5.720;2023-12-04T12:58:35;4.70;;;3.28;;
52974;SDS011;38839;45.186;5.720;2023-12-04T13:01:01;4.13;;;2.97;;
52974;SDS011;38839;45.186;5.720;2023-12-04T13:03:27;6.22;;;3.65;;
52974;SDS011;38839;45.186;5.720;2023-12-04T13:05:55;6.43;;;3.38;;
52974;SDS011;38839;45.186;5.720;2023-12-04T13:08:20;4.85;;;3.88;;
52974;SDS011;38839;45.186;5.720;2023-12-04T13:10:45;5.65;;;3.35;;
52974;SDS011;38839;45.186;5.720;2023-12-04T13:13:11;8.07;;;3.53;;
52974;SDS011;38839;45.186;5.720;2023-12-04T13:15:37;5.18;;;3.13;;
52974;SDS011;38839;45.186;5.720;2023-12-04T13:18:03;4.95;;;3.05;;
52974;SDS011;38839;45.186;5.720;2023-12-04T13:20:28;8.90;;;3.25;;
52974;SDS011;38839;45.186;5.720;2023-12-04T13:22:54;4.38;;;2.95;;
52974;SDS011;38839;45.186;5.720;2023-12-04T13:25:19;6.40;;;3.60;;
52974;SDS011;38839;45.186;5.720;2023-12-04T13:27:46;5.40;;;3.03;;
52974;SDS011;38839;45.186;5.720;2023-12-04T13:30:11;7.05;;;3.08;;
52974;SDS011;38839;45.186;5.720;2023-12-04T13:32:37;4.43;;;2.83;;
52974;SDS011;38839;45.186;5.720;2023-12-04T13:35:04;4.65;;;3.05;;
52974;SDS011;38839;45.186;5.720;2023-12-04T13:37:33;7.10;;;2.88;;
52974;SDS011;38839;45.186;5.720;2023-12-04T13:40:01;5.00;;;2.75;;
52974;SDS011;38839;45.186;5.720;2023-12-04T13:45:15;5.10;;;2.92;;
52974;SDS011;38839;45.186;5.720;2023-12-04T13:47:40;4.82;;;3.20;;
52974;SDS011;38839;45.186;5.720;2023-12-04T13:50:09;5.47;;;3.35;;
52974;SDS011;38839;45.186;5.720;2023-12-04T13:52:35;9.30;;;3.22;;
52974;SDS011;38839;45.186;5.720;2023-12-04T13:55:00;6.63;;;3.63;;
52974;SDS011;38839;45.186;5.720;2023-12-04T13:57:27;6.15;;;3.35;;
52974;SDS011;38839;45.186;5.720;2023-12-04T14:02:23;4.53;;;3.05;;
52974;SDS011;38839;45.186;5.720;2023-12-04T14:04:48;7.50;;;3.72;;
52974;SDS011;38839;45.186;5.720;2023-12-04T14:07:20;5.65;;;3.28;;
52974;SDS011;38839;45.186;5.720;2023-12-04T14:09:45;6.63;;;4.05;;
52974;SDS011;38839;45.186;5.720;2023-12-04T14:12:12;6.43;;;3.40;;
52974;SDS011;38839;45.186;5.720;2023-12-04T14:14:39;4.43;;;2.75;;
52974;SDS011;38839;45.186;5.720;2023-12-04T14:17:04;4.90;;;3.38;;
52974;SDS011;38839;45.186;5.720;2023-12-04T14:19:32;5.45;;;3.28;;
52974;SDS011;38839;45.186;5.720;2023-12-04T14:21:57;7.72;;;3.53;;
52974;SDS011;38839;45.186;5.720;2023-12-04T14:24:23;6.25;;;3.47;;
52974;SDS011;38839;45.186;5.720;2023-12-04T14:26:48;4.78;;;3.33;;
52974;SDS011;38839;45.186;5.720;2023-12-04T14:29:14;6.43;;;3.35;;
52974;SDS011;38839;45.186;5.720;2023-12-04T14:31:40;4.90;;;3.15;;
52974;SDS011;38839;45.186;5.720;2023-12-04T14:34:05;6.03;;;3.65;;
52974;SDS011;38839;45.186;5.720;2023-12-04T14:36:31;5.00;;;3.30;;
52974;SDS011;38839;45.186;5.720;2023-12-04T14:38:59;7.97;;;4.28;;
52974;SDS011;38839;45.186;5.720;2023-12-04T14:41:25;10.25;;;4.95;;
52974;SDS011;38839;45.186;5.720;2023-12-04T14:43:51;8.75;;;3.97;;
52974;SDS011;38839;45.186;5.720;2023-12-04T14:46:16;7.80;;;3.85;;
52974;SDS011;38839;45.186;5.720;2023-12-04T14:48:42;4.25;;;2.72;;
52974;SDS011;38839;45.186;5.720;2023-12-04T14:51:08;7.55;;;3.15;;
52974;SDS011;38839;45.186;5.720;2023-12-04T14:53:40;6.00;;;3.50;;